Air Quality Table

TIMESTAMP NO2 SO2 O3 PM10 PM2.5 CO TEMP HUM AIRPRES WS WD NO BENZENE
2022-11-26 09:00 24.39 µg/m3 0.3 µg/m3 40.13 µg/m3 13.18 µg/m3 5.92 µg/m3 0.3 mg/m3 17.32 °C 84.7 % 1,014.91 mbar 1.27 m/s 212.79 Deg 6.93 µg/m3 0.77 µg/m3
2022-11-26 01:00 47.66 µg/m3 1.46 µg/m3 13.83 µg/m3 41.35 µg/m3 14.63 µg/m3 0.5 mg/m3 15.08 °C 83.34 % 1,019.01 mbar 0.58 m/s 227.71 Deg 43.23 µg/m3 2.67 µg/m3
2022-11-25 17:00 21.42 µg/m3 0.06 µg/m3 52.93 µg/m3 24.99 µg/m3 8.83 µg/m3 0.32 mg/m3 18.69 °C 65.31 % 1,019.73 mbar 2 m/s 213.78 Deg 10.94 µg/m3 1.05 µg/m3
2022-11-25 09:00 23.8 µg/m3 -0.21 µg/m3 45.05 µg/m3 29.43 µg/m3 9.68 µg/m3 0.27 mg/m3 16.52 °C 77.44 % 1,018.82 mbar 1.54 m/s 268.84 Deg 9.04 µg/m3 0.68 µg/m3
2022-11-25 01:00 7.08 µg/m3 -0.27 µg/m3 62.75 µg/m3 26.35 µg/m3 12.21 µg/m3 0.24 mg/m3 17.69 °C 77.86 % 1,016.76 mbar 2.36 m/s 298.31 Deg 0.95 µg/m3 0.61 µg/m3
2022-11-24 17:00 9.6 µg/m3 -0.24 µg/m3 56.55 µg/m3 22.01 µg/m3 9.33 µg/m3 0.25 mg/m3 19.62 °C 73.63 % 1,014.45 mbar 4.38 m/s 294.1 Deg 4.4 µg/m3 0.55 µg/m3
2022-11-24 09:00 9.38 µg/m3 -0.34 µg/m3 47.42 µg/m3 21.5 µg/m3 12.35 µg/m3 0.19 mg/m3 19.01 °C 85.38 % 1,011.68 mbar 4.22 m/s 298.31 Deg 2.17 µg/m3 0.36 µg/m3
2022-11-24 01:00 2.85 µg/m3 -0.36 µg/m3 56.74 µg/m3 10.95 µg/m3 5.92 µg/m3 0.2 mg/m3 18.38 °C 84.38 % 1,010.46 mbar 5.07 m/s 278.55 Deg 0.7 µg/m3 0.44 µg/m3
2022-11-23 17:00 6.99 µg/m3 -0.16 µg/m3 57.6 µg/m3 15.33 µg/m3 6.86 µg/m3 0.2 mg/m3 18.73 °C 68.21 % 1,009.34 mbar 6.17 m/s 277.54 Deg 3.47 µg/m3 0.56 µg/m3
2022-11-23 09:00 7.84 µg/m3 -0.3 µg/m3 63.87 µg/m3 16.32 µg/m3 6.94 µg/m3 0.2 mg/m3 16.96 °C 64.18 % 1,009.50 mbar 5.11 m/s 286.85 Deg 1.62 µg/m3 0.45 µg/m3
2022-11-23 01:00 1.76 µg/m3 -0.29 µg/m3 69.1 µg/m3 16.03 µg/m3 7.44 µg/m3 0.21 mg/m3 16.9 °C 63.81 % 1,010.35 mbar 5.94 m/s 277.45 Deg 0.41 µg/m3 0.43 µg/m3
2022-11-22 17:00 6.42 µg/m3 -0.19 µg/m3 63.01 µg/m3 45.36 µg/m3 14.79 µg/m3 0.23 mg/m3 18.96 °C 64.79 % 1,008.21 mbar 8.48 m/s 265.59 Deg 2.69 µg/m3 0.52 µg/m3
2022-11-22 09:00 9.66 µg/m3 -0.17 µg/m3 67.25 µg/m3 30.46 µg/m3 10.35 µg/m3 0.21 mg/m3 18.75 °C 59.78 % 1,010.35 mbar 7.87 m/s 243.26 Deg 2.57 µg/m3 0.47 µg/m3
2022-11-22 01:00 5.64 µg/m3 -0.09 µg/m3 66.39 µg/m3 11.65 µg/m3 3.95 µg/m3 0.23 mg/m3 18.08 °C 64.51 % 1,015.35 mbar 4.14 m/s 254.23 Deg 0.98 µg/m3 0.57 µg/m3
2022-11-21 17:00 8.84 µg/m3 -0.06 µg/m3 62.39 µg/m3 13.92 µg/m3 5.97 µg/m3 0.22 mg/m3 17.69 °C 72.03 % 1,016.23 mbar 4.22 m/s 296.52 Deg 3.51 µg/m3 0.5 µg/m3
2022-11-21 09:00 8.75 µg/m3 0.15 µg/m3 64.22 µg/m3 15.28 µg/m3 6.45 µg/m3 0.21 mg/m3 16.85 °C 66.94 % 1,014.73 mbar 3.77 m/s 298.07 Deg 1.55 µg/m3 0.46 µg/m3
2022-11-21 01:00 2.02 µg/m3 0.37 µg/m3 67.58 µg/m3 15.44 µg/m3 6.86 µg/m3 0.27 mg/m3 17.73 °C 64.44 % 1,012.41 mbar 5.08 m/s 293.97 Deg 0.56 µg/m3 0.39 µg/m3
2022-11-20 17:00 5.79 µg/m3 4.52 µg/m3 63.71 µg/m3 12.23 µg/m3 4.68 µg/m3 0.26 mg/m3 15.88 °C 78.06 % 1,008.72 mbar 5.04 m/s 286.23 Deg 1.93 µg/m3 0.56 µg/m3
2022-11-20 09:00 16.47 µg/m3 9.76 µg/m3 42.21 µg/m3 54.18 µg/m3 15.49 µg/m3 0.25 mg/m3 18.23 °C 80.6 % 1,007.39 mbar 1.99 m/s 229.27 Deg 5.29 µg/m3 0.92 µg/m3
2022-11-20 01:00 10.33 µg/m3 10.77 µg/m3 50.84 µg/m3 89.73 µg/m3 24.73 µg/m3 0.31 mg/m3 21.45 °C 77.46 % 1,008.56 mbar 3.56 m/s 255.56 Deg 2.85 µg/m3 1.29 µg/m3

It is to be noted that the data is provisional and subject to quality assurance procedures. For validated data kindly refer your request to contact.air@era.org.mt